createdAt,value
2022-10-15T00:00:29.907Z,17.80
2022-10-15T00:05:38.069Z,18.00
2022-10-15T00:10:41.585Z,18.15
2022-10-15T00:15:45.051Z,16.27
2022-10-15T00:20:49.956Z,15.48
2022-10-15T00:26:02.488Z,14.00
2022-10-15T00:31:08.160Z,15.50
2022-10-15T00:36:14.935Z,14.70
2022-10-15T00:41:21.347Z,14.32
2022-10-15T00:46:27.778Z,15.07
2022-10-15T00:51:40.879Z,16.17
2022-10-15T00:56:46.683Z,14.90
2022-10-15T01:01:50.194Z,13.50
2022-10-15T01:06:55.350Z,12.27
2022-10-15T01:11:59.256Z,13.73
2022-10-15T01:17:06.800Z,12.63
2022-10-15T01:22:17.415Z,11.73
2022-10-15T01:27:37.205Z,13.02
2022-10-15T01:32:49.575Z,15.48
2022-10-15T01:37:58.795Z,15.98
2022-10-15T01:43:08.354Z,16.27
2022-10-15T01:48:24.935Z,18.10
2022-10-15T01:53:30.273Z,17.02
2022-10-15T01:58:35.581Z,16.70
2022-10-15T02:03:48.303Z,17.27
2022-10-15T02:09:04.375Z,17.98
2022-10-15T02:14:14.328Z,19.45
2022-10-15T02:19:26.126Z,19.23
2022-10-15T02:24:36.501Z,21.00
2022-10-15T02:29:45.544Z,17.50
2022-10-15T02:34:55.692Z,21.23
2022-10-15T02:39:59.134Z,23.15
2022-10-15T02:45:02.974Z,19.75
2022-10-15T02:50:08.335Z,19.55
2022-10-15T02:55:12.045Z,22.23
2022-10-15T03:00:16.530Z,23.48
2022-10-15T03:05:21.779Z,21.23
2022-10-15T03:10:25.667Z,21.83
2022-10-15T03:15:29.325Z,24.73
2022-10-15T03:20:34.203Z,23.58
2022-10-15T03:25:38.580Z,25.00
2022-10-15T03:30:43.253Z,25.30
2022-10-15T03:35:48.526Z,24.45
2022-10-15T03:40:52.848Z,25.65
2022-10-15T03:46:06.568Z,27.50
2022-10-15T03:51:18.560Z,21.65
2022-10-15T03:56:29.771Z,23.98
2022-10-15T04:01:49.365Z,20.38
2022-10-15T04:06:55.101Z,22.40
2022-10-15T04:11:59.809Z,20.60
2022-10-15T04:17:03.638Z,21.73
2022-10-15T04:22:08.690Z,23.88
2022-10-15T04:27:19.318Z,21.38
2022-10-15T04:32:23.333Z,23.42
2022-10-15T04:37:28.380Z,24.25
2022-10-15T04:42:32.249Z,21.80
2022-10-15T04:47:35.841Z,24.15
2022-10-15T04:52:46.379Z,21.52
2022-10-15T04:57:50.241Z,23.13
2022-10-15T05:03:00.853Z,20.63
2022-10-15T05:08:19.702Z,25.17
2022-10-15T05:13:43.009Z,27.63
2022-10-15T05:18:48.599Z,25.65
2022-10-15T05:23:53.627Z,29.13
2022-10-15T05:29:17.021Z,27.40
2022-10-15T05:34:20.520Z,28.80
2022-10-15T05:39:36.658Z,29.05
2022-10-15T05:44:40.304Z,28.83
2022-10-15T05:49:43.812Z,32.95
2022-10-15T05:54:53.868Z,29.20
2022-10-15T05:59:57.355Z,36.78
2022-10-15T06:05:00.945Z,40.03
2022-10-15T06:10:06.442Z,40.47
2022-10-15T06:15:12.842Z,39.08
2022-10-15T06:20:16.400Z,38.40
2022-10-15T06:25:21.211Z,41.42
2022-10-15T06:30:24.660Z,38.60
2022-10-15T06:35:30.329Z,38.10
2022-10-15T06:40:35.300Z,36.67
2022-10-15T06:45:40.554Z,38.20
2022-10-15T06:50:48.999Z,27.20
2022-10-15T06:55:57.678Z,35.92
2022-10-15T07:01:01.990Z,34.40
2022-10-15T07:06:06.913Z,37.85
2022-10-15T07:11:11.910Z,34.53
2022-10-15T07:16:15.546Z,33.30
2022-10-15T07:21:19.062Z,31.60
2022-10-15T07:26:23.927Z,33.17
2022-10-15T07:31:27.911Z,36.08
2022-10-15T07:36:31.388Z,35.58
2022-10-15T07:41:36.174Z,34.33
2022-10-15T07:46:39.762Z,36.67
2022-10-15T07:51:43.379Z,35.47
2022-10-15T07:56:48.207Z,37.00
2022-10-15T08:01:52.406Z,37.05
2022-10-15T08:06:56.110Z,32.53
2022-10-15T08:12:01.292Z,33.53
2022-10-15T08:17:06.194Z,31.73
2022-10-15T08:22:10.002Z,31.63
2022-10-15T08:27:14.822Z,32.47
2022-10-15T08:32:18.734Z,31.33
2022-10-15T08:37:22.700Z,32.15
2022-10-15T08:42:35.057Z,31.02
2022-10-15T08:47:42.599Z,28.13
2022-10-15T08:52:48.313Z,28.25
2022-10-15T08:57:58.519Z,25.85
2022-10-15T09:03:06.562Z,23.33
2022-10-15T09:08:21.948Z,25.75
2022-10-15T09:13:31.316Z,24.35
2022-10-15T09:18:36.961Z,23.42
2022-10-15T09:23:41.603Z,22.20
2022-10-15T09:28:53.442Z,19.20
2022-10-15T09:34:06.096Z,20.63
2022-10-15T09:39:32.015Z,17.38
2022-10-15T09:44:40.651Z,17.02
2022-10-15T09:49:44.624Z,16.60
2022-10-15T09:55:00.477Z,16.23
2022-10-15T10:00:08.819Z,14.70
2022-10-15T10:05:21.999Z,13.38
2022-10-15T10:10:28.553Z,13.82
2022-10-15T10:15:35.749Z,15.07
2022-10-15T10:20:54.196Z,14.93
2022-10-15T10:25:59.713Z,14.82
2022-10-15T10:31:09.996Z,13.52
2022-10-15T10:36:22.244Z,14.17
2022-10-15T10:41:49.683Z,14.07
2022-10-15T10:47:10.868Z,14.55
2022-10-15T10:57:36.116Z,15.65
2022-10-15T11:02:43.951Z,17.42
2022-10-15T11:07:53.305Z,16.23
2022-10-15T11:18:32.790Z,12.80
2022-10-15T11:23:52.859Z,12.27
2022-10-15T11:29:06.435Z,11.88
2022-10-15T11:34:30.088Z,11.07
2022-10-15T11:39:55.918Z,17.52
2022-10-15T11:45:09.127Z,11.13
2022-10-15T11:50:23.178Z,8.95
2022-10-15T11:55:34.310Z,10.40
2022-10-15T12:00:50.433Z,9.57
2022-10-15T12:06:01.143Z,8.13
2022-10-15T12:11:17.617Z,8.73
2022-10-15T12:16:28.938Z,8.60
2022-10-15T12:21:38.085Z,8.50
2022-10-15T12:26:41.549Z,8.07
2022-10-15T12:31:48.048Z,8.15
2022-10-15T12:37:01.464Z,8.70
2022-10-15T12:42:05.268Z,8.93
2022-10-15T12:47:12.204Z,9.70
2022-10-15T12:52:55.033Z,9.68
2022-10-15T12:58:34.895Z,9.18
2022-10-15T13:03:42.676Z,9.88
2022-10-15T13:08:48.902Z,9.90
2022-10-15T13:13:59.314Z,9.85
2022-10-15T13:19:04.102Z,10.13
2022-10-15T13:24:12.390Z,10.77
2022-10-15T13:29:21.857Z,10.93
2022-10-15T13:34:29.259Z,9.20
2022-10-15T13:39:36.589Z,8.13
2022-10-15T13:44:41.939Z,8.38
2022-10-15T13:49:45.632Z,7.75
2022-10-15T13:54:49.310Z,7.05
2022-10-15T13:59:54.664Z,8.43
2022-10-15T14:05:16.693Z,8.38
2022-10-15T14:10:20.242Z,8.60
2022-10-15T14:15:49.865Z,7.90
2022-10-15T14:20:54.019Z,7.18
2022-10-15T14:25:59.546Z,7.88
2022-10-15T14:31:05.520Z,6.32
2022-10-15T14:36:13.112Z,6.28
2022-10-15T14:41:25.937Z,5.72
2022-10-15T14:46:37.675Z,6.85
2022-10-15T14:51:41.226Z,8.43
2022-10-15T14:56:44.832Z,5.28
2022-10-15T15:02:01.862Z,4.28
2022-10-15T15:07:22.196Z,4.22
2022-10-15T15:12:28.053Z,8.93
2022-10-15T15:17:33.357Z,3.25
2022-10-15T15:22:38.278Z,2.97
2022-10-15T15:27:41.894Z,2.70
2022-10-15T15:32:47.005Z,2.55
2022-10-15T15:37:50.627Z,2.00
2022-10-15T15:42:54.242Z,2.50
2022-10-15T15:48:03.602Z,2.50
2022-10-15T15:53:07.310Z,2.50
2022-10-15T15:58:10.915Z,2.10
2022-10-15T16:03:16.259Z,2.22
2022-10-15T16:08:19.730Z,2.20
2022-10-15T16:13:23.700Z,2.17
2022-10-15T16:18:28.605Z,2.15
2022-10-15T16:23:32.029Z,2.00
2022-10-15T16:28:35.646Z,1.27
2022-10-15T16:33:41.394Z,1.90
2022-10-15T16:38:46.588Z,1.83
2022-10-15T16:43:50.923Z,1.65
2022-10-15T16:48:57.178Z,1.50
2022-10-15T16:54:00.891Z,1.40
2022-10-15T16:59:04.570Z,1.27
2022-10-15T17:04:09.484Z,1.70
2022-10-15T17:09:13.200Z,1.73
2022-10-15T17:14:17.824Z,2.08
2022-10-15T17:19:27.795Z,2.15
2022-10-15T17:24:34.099Z,1.80
2022-10-15T17:29:38.280Z,1.90
2022-10-15T17:34:43.248Z,2.00
2022-10-15T17:39:46.970Z,2.00
2022-10-15T17:44:50.637Z,1.77
2022-10-15T17:49:55.561Z,2.22
2022-10-15T17:54:59.140Z,2.60
2022-10-15T18:00:02.705Z,2.33
2022-10-15T18:05:17.479Z,2.60
2022-10-15T18:10:21.177Z,3.85
2022-10-15T18:15:27.951Z,3.58
2022-10-15T18:20:35.028Z,4.38
2022-10-15T18:25:38.892Z,4.28
2022-10-15T18:30:43.616Z,8.02
2022-10-15T18:35:53.037Z,3.83
2022-10-15T18:41:01.896Z,2.97
2022-10-15T18:46:09.523Z,2.53
2022-10-15T18:51:14.882Z,3.05
2022-10-15T18:56:19.004Z,2.45
2022-10-15T19:01:27.638Z,2.47
2022-10-15T19:06:35.690Z,2.75
2022-10-15T19:11:41.193Z,3.00
2022-10-15T19:17:10.643Z,3.10
2022-10-15T19:22:24.915Z,2.88
2022-10-15T19:27:28.866Z,3.00
2022-10-15T19:32:32.575Z,2.55
2022-10-15T19:37:37.497Z,3.10
2022-10-15T19:42:42.510Z,3.00
2022-10-15T19:47:47.160Z,7.50
2022-10-15T19:52:55.688Z,3.83
2022-10-15T19:58:18.225Z,3.63
2022-10-15T20:03:25.744Z,3.53
2022-10-15T20:08:32.414Z,3.92
2022-10-15T20:13:37.129Z,3.60
2022-10-15T20:18:41.803Z,3.55
2022-10-15T20:23:49.016Z,3.45
2022-10-15T20:28:53.570Z,3.42
2022-10-15T20:33:57.322Z,2.97
2022-10-15T20:39:02.968Z,2.85
2022-10-15T20:44:07.027Z,3.90
2022-10-15T20:49:16.386Z,2.63
2022-10-15T20:54:21.463Z,2.85
2022-10-15T20:59:27.890Z,3.22
2022-10-15T21:04:33.813Z,3.60
2022-10-15T21:09:38.630Z,3.15
2022-10-15T21:14:42.117Z,3.55
2022-10-15T21:19:50.262Z,2.97
2022-10-15T21:24:57.498Z,3.78
2022-10-15T21:30:00.970Z,3.47
2022-10-15T21:35:04.739Z,3.13
2022-10-15T21:40:11.484Z,3.08
2022-10-15T21:45:14.974Z,2.75
2022-10-15T21:50:18.850Z,3.22
2022-10-15T21:55:25.969Z,3.10
2022-10-15T22:00:30.620Z,3.20
2022-10-15T22:05:34.068Z,3.47
2022-10-15T22:10:38.861Z,2.95
2022-10-15T22:15:42.409Z,2.65
2022-10-15T22:20:46.928Z,2.58
2022-10-15T22:25:59.559Z,2.30
2022-10-15T22:31:04.763Z,2.55
2022-10-15T22:36:14.087Z,2.45
2022-10-15T22:41:19.039Z,2.35
2022-10-15T22:46:22.577Z,2.90
2022-10-15T22:51:26.030Z,3.30
2022-10-15T22:56:31.374Z,3.45
2022-10-15T23:01:35.907Z,2.88
2022-10-15T23:06:39.515Z,3.70
2022-10-15T23:11:45.223Z,3.05
2022-10-15T23:16:49.154Z,3.40
2022-10-15T23:21:55.420Z,2.80
2022-10-15T23:27:00.705Z,3.28
2022-10-15T23:32:04.317Z,3.17
2022-10-15T23:37:07.787Z,3.10
2022-10-15T23:42:12.609Z,2.42
2022-10-15T23:47:16.076Z,2.78
2022-10-15T23:52:19.656Z,2.67
2022-10-15T23:57:24.877Z,3.55
